sensor_id;sensor_type;location;lat;lon;timestamp;P1;durP1;ratioP1;P2;durP2;ratioP2
56297;SDS011;42208;6.376;-10.782;2022-10-31T00:01:33;27.30;;;9.52;;
56297;SDS011;42208;6.376;-10.782;2022-10-31T00:04:04;29.67;;;8.77;;
56297;SDS011;42208;6.376;-10.782;2022-10-31T00:06:32;25.52;;;9.32;;
56297;SDS011;42208;6.376;-10.782;2022-10-31T00:09:02;30.45;;;8.52;;
56297;SDS011;42208;6.376;-10.782;2022-10-31T00:11:31;30.27;;;10.18;;
56297;SDS011;42208;6.376;-10.782;2022-10-31T00:14:00;34.10;;;10.13;;
56297;SDS011;42208;6.376;-10.782;2022-10-31T00:16:28;27.13;;;9.50;;
56297;SDS011;42208;6.376;-10.782;2022-10-31T00:18:58;31.73;;;9.75;;
56297;SDS011;42208;6.376;-10.782;2022-10-31T00:21:29;30.65;;;9.02;;
56297;SDS011;42208;6.376;-10.782;2022-10-31T00:23:58;29.67;;;9.43;;
56297;SDS011;42208;6.376;-10.782;2022-10-31T00:26:28;23.88;;;8.98;;
56297;SDS011;42208;6.376;-10.782;2022-10-31T00:28:57;25.45;;;9.23;;
56297;SDS011;42208;6.376;-10.782;2022-10-31T00:31:26;28.38;;;8.52;;
56297;SDS011;42208;6.376;-10.782;2022-10-31T00:33:55;29.85;;;9.85;;
56297;SDS011;42208;6.376;-10.782;2022-10-31T00:36:25;37.97;;;13.43;;
56297;SDS011;42208;6.376;-10.782;2022-10-31T00:38:54;43.75;;;15.60;;
56297;SDS011;42208;6.376;-10.782;2022-10-31T00:41:23;28.70;;;13.00;;
56297;SDS011;42208;6.376;-10.782;2022-10-31T00:43:51;34.15;;;12.65;;
56297;SDS011;42208;6.376;-10.782;2022-10-31T00:46:19;36.83;;;10.55;;
56297;SDS011;42208;6.376;-10.782;2022-10-31T00:48:49;28.75;;;9.45;;
56297;SDS011;42208;6.376;-10.782;2022-10-31T00:51:18;31.55;;;8.25;;
56297;SDS011;42208;6.376;-10.782;2022-10-31T00:53:46;26.20;;;7.28;;
56297;SDS011;42208;6.376;-10.782;2022-10-31T00:56:14;27.83;;;8.55;;
56297;SDS011;42208;6.376;-10.782;2022-10-31T00:58:42;31.73;;;8.20;;
56297;SDS011;42208;6.376;-10.782;2022-10-31T01:01:10;19.95;;;7.93;;
56297;SDS011;42208;6.376;-10.782;2022-10-31T01:03:39;27.70;;;8.02;;
56297;SDS011;42208;6.376;-10.782;2022-10-31T01:06:11;27.73;;;7.40;;
56297;SDS011;42208;6.376;-10.782;2022-10-31T01:08:40;30.73;;;7.53;;
56297;SDS011;42208;6.376;-10.782;2022-10-31T01:11:19;30.98;;;7.60;;
56297;SDS011;42208;6.376;-10.782;2022-10-31T01:13:52;22.23;;;7.50;;
56297;SDS011;42208;6.376;-10.782;2022-10-31T01:16:22;28.77;;;8.02;;
56297;SDS011;42208;6.376;-10.782;2022-10-31T01:18:52;29.70;;;7.85;;
56297;SDS011;42208;6.376;-10.782;2022-10-31T01:21:24;34.58;;;9.00;;
56297;SDS011;42208;6.376;-10.782;2022-10-31T01:23:57;24.10;;;7.07;;
56297;SDS011;42208;6.376;-10.782;2022-10-31T01:26:27;22.77;;;7.40;;
56297;SDS011;42208;6.376;-10.782;2022-10-31T01:28:57;21.98;;;7.70;;
56297;SDS011;42208;6.376;-10.782;2022-10-31T01:31:32;27.33;;;7.30;;
56297;SDS011;42208;6.376;-10.782;2022-10-31T01:34:02;28.08;;;8.02;;
56297;SDS011;42208;6.376;-10.782;2022-10-31T01:36:31;26.90;;;8.73;;
56297;SDS011;42208;6.376;-10.782;2022-10-31T01:39:05;26.42;;;8.57;;
56297;SDS011;42208;6.376;-10.782;2022-10-31T01:41:37;28.63;;;9.00;;
56297;SDS011;42208;6.376;-10.782;2022-10-31T01:46:52;31.38;;;9.70;;
56297;SDS011;42208;6.376;-10.782;2022-10-31T01:49:29;29.07;;;11.10;;
56297;SDS011;42208;6.376;-10.782;2022-10-31T01:57:35;32.10;;;12.68;;
56297;SDS011;42208;6.376;-10.782;2022-10-31T02:00:09;29.50;;;12.10;;
56297;SDS011;42208;6.376;-10.782;2022-10-31T02:02:41;37.45;;;14.15;;
56297;SDS011;42208;6.376;-10.782;2022-10-31T02:05:12;35.78;;;13.98;;
56297;SDS011;42208;6.376;-10.782;2022-10-31T02:07:52;36.10;;;14.45;;
56297;SDS011;42208;6.376;-10.782;2022-10-31T02:10:29;34.10;;;14.70;;
56297;SDS011;42208;6.376;-10.782;2022-10-31T02:13:01;41.53;;;15.68;;
56297;SDS011;42208;6.376;-10.782;2022-10-31T02:15:35;39.90;;;16.35;;
56297;SDS011;42208;6.376;-10.782;2022-10-31T02:18:05;33.40;;;14.82;;
56297;SDS011;42208;6.376;-10.782;2022-10-31T02:31:54;42.88;;;19.10;;
56297;SDS011;42208;6.376;-10.782;2022-10-31T02:35:37;39.53;;;19.70;;
56297;SDS011;42208;6.376;-10.782;2022-10-31T02:37:39;47.83;;;19.25;;
56297;SDS011;42208;6.376;-10.782;2022-10-31T02:46:05;42.67;;;19.10;;
56297;SDS011;42208;6.376;-10.782;2022-10-31T02:48:36;46.15;;;19.63;;
56297;SDS011;42208;6.376;-10.782;2022-10-31T02:51:07;54.47;;;20.65;;
56297;SDS011;42208;6.376;-10.782;2022-10-31T02:53:37;43.88;;;18.98;;
56297;SDS011;42208;6.376;-10.782;2022-10-31T02:56:15;54.30;;;20.35;;
56297;SDS011;42208;6.376;-10.782;2022-10-31T02:58:53;47.47;;;20.20;;
56297;SDS011;42208;6.376;-10.782;2022-10-31T03:09:57;44.90;;;20.02;;
56297;SDS011;42208;6.376;-10.782;2022-10-31T03:12:54;45.00;;;18.70;;
56297;SDS011;42208;6.376;-10.782;2022-10-31T03:15:48;44.20;;;19.13;;
56297;SDS011;42208;6.376;-10.782;2022-10-31T03:21:00;44.85;;;19.40;;
56297;SDS011;42208;6.376;-10.782;2022-10-31T03:23:34;39.95;;;18.70;;
56297;SDS011;42208;6.376;-10.782;2022-10-31T03:26:04;43.70;;;20.00;;
56297;SDS011;42208;6.376;-10.782;2022-10-31T03:28:38;42.00;;;19.60;;
56297;SDS011;42208;6.376;-10.782;2022-10-31T03:31:12;44.17;;;19.92;;
56297;SDS011;42208;6.376;-10.782;2022-10-31T03:33:45;46.50;;;20.35;;
56297;SDS011;42208;6.376;-10.782;2022-10-31T03:36:15;44.42;;;19.48;;
56297;SDS011;42208;6.376;-10.782;2022-10-31T03:38:46;40.72;;;19.73;;
56297;SDS011;42208;6.376;-10.782;2022-10-31T03:41:21;43.72;;;22.27;;
56297;SDS011;42208;6.376;-10.782;2022-10-31T03:43:55;49.58;;;21.73;;
56297;SDS011;42208;6.376;-10.782;2022-10-31T03:46:42;43.60;;;20.50;;
56297;SDS011;42208;6.376;-10.782;2022-10-31T03:49:11;45.03;;;23.30;;
56297;SDS011;42208;6.376;-10.782;2022-10-31T03:54:24;45.63;;;21.80;;
56297;SDS011;42208;6.376;-10.782;2022-10-31T03:57:01;38.40;;;19.33;;
56297;SDS011;42208;6.376;-10.782;2022-10-31T03:59:36;40.55;;;19.63;;
56297;SDS011;42208;6.376;-10.782;2022-10-31T04:02:14;40.67;;;20.23;;
56297;SDS011;42208;6.376;-10.782;2022-10-31T04:04:44;40.03;;;18.77;;
56297;SDS011;42208;6.376;-10.782;2022-10-31T04:07:14;49.53;;;19.10;;
56297;SDS011;42208;6.376;-10.782;2022-10-31T04:09:43;39.63;;;19.48;;
56297;SDS011;42208;6.376;-10.782;2022-10-31T04:12:14;49.70;;;21.27;;
56297;SDS011;42208;6.376;-10.782;2022-10-31T04:15:00;49.05;;;21.75;;
56297;SDS011;42208;6.376;-10.782;2022-10-31T04:17:34;41.03;;;21.67;;
56297;SDS011;42208;6.376;-10.782;2022-10-31T04:20:07;51.22;;;24.63;;
56297;SDS011;42208;6.376;-10.782;2022-10-31T04:22:36;42.50;;;22.48;;
56297;SDS011;42208;6.376;-10.782;2022-10-31T04:25:04;49.38;;;22.63;;
56297;SDS011;42208;6.376;-10.782;2022-10-31T04:27:33;45.83;;;23.50;;
56297;SDS011;42208;6.376;-10.782;2022-10-31T04:30:01;46.00;;;21.63;;
56297;SDS011;42208;6.376;-10.782;2022-10-31T04:32:32;42.05;;;21.75;;
56297;SDS011;42208;6.376;-10.782;2022-10-31T04:35:01;40.78;;;20.85;;
56297;SDS011;42208;6.376;-10.782;2022-10-31T04:37:29;46.28;;;21.10;;
56297;SDS011;42208;6.376;-10.782;2022-10-31T04:39:58;46.40;;;21.45;;
56297;SDS011;42208;6.376;-10.782;2022-10-31T04:42:46;40.78;;;19.52;;
56297;SDS011;42208;6.376;-10.782;2022-10-31T04:45:15;41.72;;;20.23;;
56297;SDS011;42208;6.376;-10.782;2022-10-31T04:47:50;41.17;;;18.90;;
56297;SDS011;42208;6.376;-10.782;2022-10-31T04:50:18;38.88;;;19.48;;
56297;SDS011;42208;6.376;-10.782;2022-10-31T04:52:47;41.90;;;19.42;;
56297;SDS011;42208;6.376;-10.782;2022-10-31T04:55:19;46.05;;;21.05;;
56297;SDS011;42208;6.376;-10.782;2022-10-31T04:58:12;40.25;;;19.95;;
56297;SDS011;42208;6.376;-10.782;2022-10-31T05:00:40;39.38;;;19.63;;
56297;SDS011;42208;6.376;-10.782;2022-10-31T05:03:08;34.75;;;19.35;;
56297;SDS011;42208;6.376;-10.782;2022-10-31T05:05:36;42.97;;;20.50;;
56297;SDS011;42208;6.376;-10.782;2022-10-31T05:08:05;51.70;;;20.23;;
56297;SDS011;42208;6.376;-10.782;2022-10-31T05:10:33;39.35;;;20.35;;
56297;SDS011;42208;6.376;-10.782;2022-10-31T05:13:02;43.72;;;21.75;;
56297;SDS011;42208;6.376;-10.782;2022-10-31T05:16:07;44.65;;;21.52;;
56297;SDS011;42208;6.376;-10.782;2022-10-31T05:18:47;56.47;;;23.40;;
56297;SDS011;42208;6.376;-10.782;2022-10-31T05:21:50;50.17;;;22.52;;
56297;SDS011;42208;6.376;-10.782;2022-10-31T05:24:19;46.15;;;22.13;;
56297;SDS011;42208;6.376;-10.782;2022-10-31T05:26:48;47.05;;;22.80;;
56297;SDS011;42208;6.376;-10.782;2022-10-31T05:29:16;56.83;;;22.98;;
56297;SDS011;42208;6.376;-10.782;2022-10-31T05:31:44;54.80;;;22.58;;
56297;SDS011;42208;6.376;-10.782;2022-10-31T05:34:32;41.00;;;19.00;;
56297;SDS011;42208;6.376;-10.782;2022-10-31T05:37:14;43.75;;;20.95;;
56297;SDS011;42208;6.376;-10.782;2022-10-31T05:39:43;46.70;;;21.88;;
56297;SDS011;42208;6.376;-10.782;2022-10-31T05:42:14;41.53;;;21.17;;
56297;SDS011;42208;6.376;-10.782;2022-10-31T05:44:43;43.35;;;21.10;;
56297;SDS011;42208;6.376;-10.782;2022-10-31T05:47:34;51.92;;;23.00;;
56297;SDS011;42208;6.376;-10.782;2022-10-31T05:50:23;58.83;;;22.48;;
56297;SDS011;42208;6.376;-10.782;2022-10-31T05:53:04;54.42;;;22.58;;
56297;SDS011;42208;6.376;-10.782;2022-10-31T05:55:36;45.75;;;22.38;;
56297;SDS011;42208;6.376;-10.782;2022-10-31T05:58:10;40.45;;;22.08;;
56297;SDS011;42208;6.376;-10.782;2022-10-31T06:00:44;56.40;;;23.17;;
56297;SDS011;42208;6.376;-10.782;2022-10-31T06:03:14;51.90;;;21.98;;
56297;SDS011;42208;6.376;-10.782;2022-10-31T06:09:28;43.38;;;23.42;;
56297;SDS011;42208;6.376;-10.782;2022-10-31T06:11:57;54.97;;;24.90;;
56297;SDS011;42208;6.376;-10.782;2022-10-31T06:14:25;49.30;;;24.85;;
56297;SDS011;42208;6.376;-10.782;2022-10-31T06:16:56;45.25;;;24.83;;
56297;SDS011;42208;6.376;-10.782;2022-10-31T06:19:42;57.67;;;24.92;;
56297;SDS011;42208;6.376;-10.782;2022-10-31T06:22:14;49.17;;;23.95;;
56297;SDS011;42208;6.376;-10.782;2022-10-31T06:24:43;53.70;;;24.65;;
56297;SDS011;42208;6.376;-10.782;2022-10-31T06:27:26;50.63;;;23.30;;
56297;SDS011;42208;6.376;-10.782;2022-10-31T06:29:56;48.78;;;22.13;;
56297;SDS011;42208;6.376;-10.782;2022-10-31T06:32:30;45.75;;;21.77;;
56297;SDS011;42208;6.376;-10.782;2022-10-31T06:34:58;45.08;;;21.25;;
56297;SDS011;42208;6.376;-10.782;2022-10-31T06:37:27;46.13;;;22.80;;
56297;SDS011;42208;6.376;-10.782;2022-10-31T06:40:02;54.80;;;23.85;;
56297;SDS011;42208;6.376;-10.782;2022-10-31T06:42:44;51.85;;;23.98;;
56297;SDS011;42208;6.376;-10.782;2022-10-31T06:45:12;54.08;;;24.88;;
56297;SDS011;42208;6.376;-10.782;2022-10-31T06:48:15;49.40;;;24.25;;
56297;SDS011;42208;6.376;-10.782;2022-10-31T06:51:02;43.58;;;23.15;;
56297;SDS011;42208;6.376;-10.782;2022-10-31T06:53:31;50.10;;;23.73;;
56297;SDS011;42208;6.376;-10.782;2022-10-31T06:56:00;46.35;;;21.98;;
56297;SDS011;42208;6.376;-10.782;2022-10-31T06:58:33;39.45;;;20.67;;
56297;SDS011;42208;6.376;-10.782;2022-10-31T07:01:03;49.10;;;24.30;;
56297;SDS011;42208;6.376;-10.782;2022-10-31T07:03:32;44.10;;;22.67;;
56297;SDS011;42208;6.376;-10.782;2022-10-31T07:06:01;49.85;;;24.00;;
56297;SDS011;42208;6.376;-10.782;2022-10-31T07:08:30;46.40;;;23.05;;
56297;SDS011;42208;6.376;-10.782;2022-10-31T07:10:59;40.00;;;21.67;;
56297;SDS011;42208;6.376;-10.782;2022-10-31T07:13:28;45.72;;;22.00;;
56297;SDS011;42208;6.376;-10.782;2022-10-31T07:16:03;50.40;;;21.88;;
56297;SDS011;42208;6.376;-10.782;2022-10-31T07:18:34;44.25;;;20.05;;
56297;SDS011;42208;6.376;-10.782;2022-10-31T07:21:03;44.17;;;20.27;;
56297;SDS011;42208;6.376;-10.782;2022-10-31T07:23:31;40.65;;;19.50;;
56297;SDS011;42208;6.376;-10.782;2022-10-31T07:26:25;40.08;;;19.27;;
56297;SDS011;42208;6.376;-10.782;2022-10-31T07:28:54;48.60;;;20.75;;
56297;SDS011;42208;6.376;-10.782;2022-10-31T07:31:24;38.40;;;19.17;;
56297;SDS011;42208;6.376;-10.782;2022-10-31T07:33:56;45.35;;;18.08;;
56297;SDS011;42208;6.376;-10.782;2022-10-31T07:36:27;38.20;;;16.60;;
56297;SDS011;42208;6.376;-10.782;2022-10-31T07:39:01;41.85;;;17.02;;
56297;SDS011;42208;6.376;-10.782;2022-10-31T07:41:32;38.78;;;16.90;;
56297;SDS011;42208;6.376;-10.782;2022-10-31T07:44:01;29.02;;;15.40;;
56297;SDS011;42208;6.376;-10.782;2022-10-31T07:46:52;28.92;;;14.88;;
56297;SDS011;42208;6.376;-10.782;2022-10-31T07:49:39;34.38;;;15.00;;
56297;SDS011;42208;6.376;-10.782;2022-10-31T07:52:25;38.33;;;13.27;;
56297;SDS011;42208;6.376;-10.782;2022-10-31T07:57:09;28.40;;;12.48;;
56297;SDS011;42208;6.376;-10.782;2022-10-31T07:59:38;30.77;;;12.63;;
56297;SDS011;42208;6.376;-10.782;2022-10-31T08:02:07;39.78;;;13.65;;
56297;SDS011;42208;6.376;-10.782;2022-10-31T08:04:58;38.33;;;14.30;;
56297;SDS011;42208;6.376;-10.782;2022-10-31T08:07:59;35.65;;;13.77;;
56297;SDS011;42208;6.376;-10.782;2022-10-31T08:10:28;33.08;;;14.20;;
56297;SDS011;42208;6.376;-10.782;2022-10-31T08:12:58;36.65;;;13.48;;
56297;SDS011;42208;6.376;-10.782;2022-10-31T08:15:29;29.20;;;12.98;;
56297;SDS011;42208;6.376;-10.782;2022-10-31T08:17:58;33.53;;;12.88;;
56297;SDS011;42208;6.376;-10.782;2022-10-31T08:20:27;46.90;;;12.63;;
56297;SDS011;42208;6.376;-10.782;2022-10-31T08:22:56;32.90;;;12.23;;
56297;SDS011;42208;6.376;-10.782;2022-10-31T08:25:27;35.90;;;13.40;;
56297;SDS011;42208;6.376;-10.782;2022-10-31T08:28:04;40.95;;;12.25;;
56297;SDS011;42208;6.376;-10.782;2022-10-31T08:30:34;31.15;;;11.30;;
56297;SDS011;42208;6.376;-10.782;2022-10-31T08:33:33;35.35;;;11.27;;
56297;SDS011;42208;6.376;-10.782;2022-10-31T08:36:20;30.42;;;10.82;;
56297;SDS011;42208;6.376;-10.782;2022-10-31T08:38:57;26.83;;;10.80;;
56297;SDS011;42208;6.376;-10.782;2022-10-31T08:41:29;31.67;;;10.13;;
56297;SDS011;42208;6.376;-10.782;2022-10-31T08:43:59;31.17;;;9.65;;
56297;SDS011;42208;6.376;-10.782;2022-10-31T08:46:27;23.15;;;9.35;;
56297;SDS011;42208;6.376;-10.782;2022-10-31T08:48:56;29.92;;;9.35;;
56297;SDS011;42208;6.376;-10.782;2022-10-31T08:51:24;27.50;;;10.48;;
56297;SDS011;42208;6.376;-10.782;2022-10-31T08:53:54;31.55;;;10.45;;
56297;SDS011;42208;6.376;-10.782;2022-10-31T08:56:45;38.88;;;12.07;;
56297;SDS011;42208;6.376;-10.782;2022-10-31T08:59:45;33.28;;;12.30;;
56297;SDS011;42208;6.376;-10.782;2022-10-31T09:02:37;36.35;;;11.25;;
56297;SDS011;42208;6.376;-10.782;2022-10-31T09:05:05;32.10;;;11.85;;
56297;SDS011;42208;6.376;-10.782;2022-10-31T09:07:34;26.83;;;10.75;;
56297;SDS011;42208;6.376;-10.782;2022-10-31T09:10:02;34.40;;;10.70;;
56297;SDS011;42208;6.376;-10.782;2022-10-31T09:12:34;31.63;;;10.70;;
56297;SDS011;42208;6.376;-10.782;2022-10-31T09:15:22;33.42;;;10.40;;
56297;SDS011;42208;6.376;-10.782;2022-10-31T09:18:12;27.92;;;10.27;;
56297;SDS011;42208;6.376;-10.782;2022-10-31T09:20:49;35.10;;;9.77;;
56297;SDS011;42208;6.376;-10.782;2022-10-31T09:23:18;29.88;;;10.55;;
56297;SDS011;42208;6.376;-10.782;2022-10-31T09:25:48;27.58;;;9.30;;
56297;SDS011;42208;6.376;-10.782;2022-10-31T09:28:30;30.17;;;9.80;;
56297;SDS011;42208;6.376;-10.782;2022-10-31T09:31:05;34.28;;;9.50;;
56297;SDS011;42208;6.376;-10.782;2022-10-31T09:34:02;30.50;;;9.50;;
56297;SDS011;42208;6.376;-10.782;2022-10-31T09:36:37;30.75;;;10.30;;
56297;SDS011;42208;6.376;-10.782;2022-10-31T09:39:10;47.65;;;12.02;;
56297;SDS011;42208;6.376;-10.782;2022-10-31T09:44:44;39.50;;;11.50;;
56297;SDS011;42208;6.376;-10.782;2022-10-31T09:50:48;47.53;;;13.30;;
56297;SDS011;42208;6.376;-10.782;2022-10-31T09:53:50;120.13;;;15.10;;
56297;SDS011;42208;6.376;-10.782;2022-10-31T09:56:30;29.58;;;10.32;;
56297;SDS011;42208;6.376;-10.782;2022-10-31T09:59:00;33.17;;;9.95;;
56297;SDS011;42208;6.376;-10.782;2022-10-31T10:01:38;32.97;;;9.48;;
56297;SDS011;42208;6.376;-10.782;2022-10-31T10:04:33;27.98;;;10.25;;
56297;SDS011;42208;6.376;-10.782;2022-10-31T10:10:12;41.75;;;12.93;;
56297;SDS011;42208;6.376;-10.782;2022-10-31T10:18:53;34.17;;;10.23;;
56297;SDS011;42208;6.376;-10.782;2022-10-31T10:26:41;32.60;;;11.02;;
56297;SDS011;42208;6.376;-10.782;2022-10-31T10:29:29;34.38;;;9.32;;
56297;SDS011;42208;6.376;-10.782;2022-10-31T10:37:50;46.47;;;11.93;;
56297;SDS011;42208;6.376;-10.782;2022-10-31T10:40:25;60.60;;;10.88;;
56297;SDS011;42208;6.376;-10.782;2022-10-31T10:43:11;37.67;;;10.73;;
56297;SDS011;42208;6.376;-10.782;2022-10-31T10:48:42;37.75;;;10.73;;
56297;SDS011;42208;6.376;-10.782;2022-10-31T10:51:23;43.70;;;11.65;;
56297;SDS011;42208;6.376;-10.782;2022-10-31T10:54:37;36.63;;;10.30;;
56297;SDS011;42208;6.376;-10.782;2022-10-31T10:59:54;44.20;;;11.05;;
56297;SDS011;42208;6.376;-10.782;2022-10-31T11:02:23;46.85;;;9.65;;
56297;SDS011;42208;6.376;-10.782;2022-10-31T11:04:54;55.85;;;14.48;;
56297;SDS011;42208;6.376;-10.782;2022-10-31T11:07:24;76.47;;;16.67;;
56297;SDS011;42208;6.376;-10.782;2022-10-31T11:10:02;38.03;;;8.98;;
56297;SDS011;42208;6.376;-10.782;2022-10-31T11:12:38;36.63;;;9.13;;
56297;SDS011;42208;6.376;-10.782;2022-10-31T11:15:15;41.58;;;10.77;;
56297;SDS011;42208;6.376;-10.782;2022-10-31T11:17:48;40.17;;;9.48;;
56297;SDS011;42208;6.376;-10.782;2022-10-31T11:22:47;46.15;;;10.15;;
56297;SDS011;42208;6.376;-10.782;2022-10-31T11:27:58;43.45;;;10.60;;
56297;SDS011;42208;6.376;-10.782;2022-10-31T11:30:27;49.05;;;10.43;;
56297;SDS011;42208;6.376;-10.782;2022-10-31T11:32:56;35.47;;;9.25;;
56297;SDS011;42208;6.376;-10.782;2022-10-31T11:35:29;45.20;;;10.02;;
56297;SDS011;42208;6.376;-10.782;2022-10-31T11:37:57;27.77;;;8.85;;
56297;SDS011;42208;6.376;-10.782;2022-10-31T11:40:27;34.35;;;10.02;;
56297;SDS011;42208;6.376;-10.782;2022-10-31T11:42:56;35.10;;;9.32;;
56297;SDS011;42208;6.376;-10.782;2022-10-31T11:45:29;35.67;;;8.63;;
56297;SDS011;42208;6.376;-10.782;2022-10-31T11:48:00;35.55;;;9.25;;
56297;SDS011;42208;6.376;-10.782;2022-10-31T11:50:40;40.25;;;9.05;;
56297;SDS011;42208;6.376;-10.782;2022-10-31T11:53:16;38.83;;;9.88;;
56297;SDS011;42208;6.376;-10.782;2022-10-31T11:56:10;30.30;;;9.15;;
56297;SDS011;42208;6.376;-10.782;2022-10-31T11:58:42;39.75;;;8.90;;
56297;SDS011;42208;6.376;-10.782;2022-10-31T12:01:45;34.80;;;8.52;;
56297;SDS011;42208;6.376;-10.782;2022-10-31T12:04:11;46.03;;;9.70;;
56297;SDS011;42208;6.376;-10.782;2022-10-31T12:06:41;39.42;;;8.57;;
56297;SDS011;42208;6.376;-10.782;2022-10-31T12:09:16;44.88;;;10.30;;
56297;SDS011;42208;6.376;-10.782;2022-10-31T12:35:43;38.95;;;12.68;;
56297;SDS011;42208;6.376;-10.782;2022-10-31T12:55:20;26.98;;;10.00;;
56297;SDS011;42208;6.376;-10.782;2022-10-31T12:57:56;33.15;;;10.18;;
56297;SDS011;42208;6.376;-10.782;2022-10-31T13:00:29;36.63;;;9.75;;
56297;SDS011;42208;6.376;-10.782;2022-10-31T13:03:23;35.55;;;9.45;;
56297;SDS011;42208;6.376;-10.782;2022-10-31T13:06:07;29.42;;;9.38;;
56297;SDS011;42208;6.376;-10.782;2022-10-31T13:08:52;36.97;;;8.95;;
56297;SDS011;42208;6.376;-10.782;2022-10-31T13:11:28;32.33;;;9.13;;
56297;SDS011;42208;6.376;-10.782;2022-10-31T13:14:11;36.92;;;8.13;;
56297;SDS011;42208;6.376;-10.782;2022-10-31T13:16:50;32.80;;;8.82;;
56297;SDS011;42208;6.376;-10.782;2022-10-31T13:27:26;28.80;;;9.30;;
56297;SDS011;42208;6.376;-10.782;2022-10-31T13:30:03;36.08;;;8.52;;
56297;SDS011;42208;6.376;-10.782;2022-10-31T13:33:01;30.63;;;8.43;;
56297;SDS011;42208;6.376;-10.782;2022-10-31T13:46:52;27.58;;;7.32;;
56297;SDS011;42208;6.376;-10.782;2022-10-31T13:54:45;33.30;;;7.38;;
56297;SDS011;42208;6.376;-10.782;2022-10-31T14:00:14;33.15;;;7.80;;
56297;SDS011;42208;6.376;-10.782;2022-10-31T14:02:52;34.97;;;7.63;;
56297;SDS011;42208;6.376;-10.782;2022-10-31T14:07:58;44.47;;;10.98;;
56297;SDS011;42208;6.376;-10.782;2022-10-31T14:10:38;30.58;;;7.55;;
56297;SDS011;42208;6.376;-10.782;2022-10-31T14:13:30;31.63;;;7.35;;
56297;SDS011;42208;6.376;-10.782;2022-10-31T14:16:03;36.05;;;15.43;;
56297;SDS011;42208;6.376;-10.782;2022-10-31T14:18:37;37.25;;;7.82;;
56297;SDS011;42208;6.376;-10.782;2022-10-31T14:21:26;35.08;;;8.77;;
56297;SDS011;42208;6.376;-10.782;2022-10-31T14:23:56;60.30;;;18.05;;
56297;SDS011;42208;6.376;-10.782;2022-10-31T14:29:20;35.78;;;7.80;;
56297;SDS011;42208;6.376;-10.782;2022-10-31T14:31:55;29.40;;;6.43;;
56297;SDS011;42208;6.376;-10.782;2022-10-31T14:34:34;31.45;;;6.90;;
56297;SDS011;42208;6.376;-10.782;2022-10-31T14:51:14;34.00;;;7.70;;
56297;SDS011;42208;6.376;-10.782;2022-10-31T14:53:51;35.95;;;7.18;;
56297;SDS011;42208;6.376;-10.782;2022-10-31T14:56:27;30.75;;;7.95;;
56297;SDS011;42208;6.376;-10.782;2022-10-31T14:58:59;27.33;;;7.55;;
56297;SDS011;42208;6.376;-10.782;2022-10-31T15:01:36;23.75;;;6.40;;
56297;SDS011;42208;6.376;-10.782;2022-10-31T15:04:28;36.28;;;5.95;;
56297;SDS011;42208;6.376;-10.782;2022-10-31T15:07:06;36.15;;;7.82;;
56297;SDS011;42208;6.376;-10.782;2022-10-31T15:09:40;25.40;;;6.47;;
56297;SDS011;42208;6.376;-10.782;2022-10-31T15:12:42;33.28;;;7.10;;
56297;SDS011;42208;6.376;-10.782;2022-10-31T15:17:54;29.50;;;6.57;;
56297;SDS011;42208;6.376;-10.782;2022-10-31T15:22:55;36.85;;;7.53;;
56297;SDS011;42208;6.376;-10.782;2022-10-31T15:25:27;44.65;;;8.93;;
56297;SDS011;42208;6.376;-10.782;2022-10-31T15:27:59;38.17;;;7.97;;
56297;SDS011;42208;6.376;-10.782;2022-10-31T15:30:28;37.88;;;8.23;;
56297;SDS011;42208;6.376;-10.782;2022-10-31T15:32:57;52.50;;;17.15;;
56297;SDS011;42208;6.376;-10.782;2022-10-31T15:35:29;39.95;;;14.57;;
56297;SDS011;42208;6.376;-10.782;2022-10-31T15:37:58;33.05;;;14.18;;
56297;SDS011;42208;6.376;-10.782;2022-10-31T15:40:27;50.42;;;18.38;;
56297;SDS011;42208;6.376;-10.782;2022-10-31T15:45:26;44.17;;;12.07;;
56297;SDS011;42208;6.376;-10.782;2022-10-31T15:48:13;31.45;;;8.32;;
56297;SDS011;42208;6.376;-10.782;2022-10-31T15:50:50;42.92;;;9.95;;
56297;SDS011;42208;6.376;-10.782;2022-10-31T15:53:23;36.83;;;12.43;;
56297;SDS011;42208;6.376;-10.782;2022-10-31T15:56:00;36.25;;;10.27;;
56297;SDS011;42208;6.376;-10.782;2022-10-31T16:03:32;41.30;;;11.00;;
56297;SDS011;42208;6.376;-10.782;2022-10-31T16:06:02;34.28;;;9.50;;
56297;SDS011;42208;6.376;-10.782;2022-10-31T16:09:54;62.72;;;15.68;;
56297;SDS011;42208;6.376;-10.782;2022-10-31T16:12:25;39.67;;;13.63;;
56297;SDS011;42208;6.376;-10.782;2022-10-31T16:15:05;49.00;;;11.48;;
56297;SDS011;42208;6.376;-10.782;2022-10-31T16:17:41;48.35;;;11.40;;
56297;SDS011;42208;6.376;-10.782;2022-10-31T16:20:19;46.03;;;10.38;;
56297;SDS011;42208;6.376;-10.782;2022-10-31T16:22:50;44.65;;;11.20;;
56297;SDS011;42208;6.376;-10.782;2022-10-31T16:28:04;39.38;;;8.52;;
56297;SDS011;42208;6.376;-10.782;2022-10-31T16:30:42;40.67;;;10.20;;
56297;SDS011;42208;6.376;-10.782;2022-10-31T16:35:58;39.20;;;9.38;;
56297;SDS011;42208;6.376;-10.782;2022-10-31T16:38:41;39.17;;;9.30;;
56297;SDS011;42208;6.376;-10.782;2022-10-31T16:41:10;33.78;;;7.90;;
56297;SDS011;42208;6.376;-10.782;2022-10-31T16:43:38;36.90;;;8.85;;
56297;SDS011;42208;6.376;-10.782;2022-10-31T16:46:08;46.80;;;9.00;;
56297;SDS011;42208;6.376;-10.782;2022-10-31T16:48:42;40.00;;;9.30;;
56297;SDS011;42208;6.376;-10.782;2022-10-31T16:51:10;39.35;;;9.02;;
56297;SDS011;42208;6.376;-10.782;2022-10-31T16:53:38;37.28;;;8.05;;
56297;SDS011;42208;6.376;-10.782;2022-10-31T16:56:17;43.67;;;10.13;;
56297;SDS011;42208;6.376;-10.782;2022-10-31T16:58:51;50.88;;;10.23;;
56297;SDS011;42208;6.376;-10.782;2022-10-31T17:01:19;39.97;;;8.40;;
56297;SDS011;42208;6.376;-10.782;2022-10-31T17:03:47;33.08;;;8.93;;
56297;SDS011;42208;6.376;-10.782;2022-10-31T17:06:15;38.40;;;7.60;;
56297;SDS011;42208;6.376;-10.782;2022-10-31T17:08:44;41.08;;;8.80;;
56297;SDS011;42208;6.376;-10.782;2022-10-31T17:11:17;45.35;;;8.23;;
56297;SDS011;42208;6.376;-10.782;2022-10-31T17:13:47;42.63;;;8.15;;
56297;SDS011;42208;6.376;-10.782;2022-10-31T17:16:16;37.13;;;8.48;;
56297;SDS011;42208;6.376;-10.782;2022-10-31T17:18:44;31.60;;;8.40;;
56297;SDS011;42208;6.376;-10.782;2022-10-31T17:21:17;41.35;;;9.10;;
56297;SDS011;42208;6.376;-10.782;2022-10-31T17:23:48;45.60;;;9.55;;
56297;SDS011;42208;6.376;-10.782;2022-10-31T17:26:17;35.22;;;7.75;;
56297;SDS011;42208;6.376;-10.782;2022-10-31T17:28:46;31.23;;;8.32;;
56297;SDS011;42208;6.376;-10.782;2022-10-31T17:31:18;34.40;;;10.48;;
56297;SDS011;42208;6.376;-10.782;2022-10-31T17:33:55;38.63;;;8.88;;
56297;SDS011;42208;6.376;-10.782;2022-10-31T17:36:29;29.40;;;8.38;;
56297;SDS011;42208;6.376;-10.782;2022-10-31T17:38:58;34.80;;;9.00;;
56297;SDS011;42208;6.376;-10.782;2022-10-31T17:41:27;40.50;;;9.52;;
56297;SDS011;42208;6.376;-10.782;2022-10-31T17:43:55;34.00;;;9.25;;
56297;SDS011;42208;6.376;-10.782;2022-10-31T17:46:24;43.15;;;9.35;;
56297;SDS011;42208;6.376;-10.782;2022-10-31T17:48:53;40.78;;;9.25;;
56297;SDS011;42208;6.376;-10.782;2022-10-31T17:51:21;52.00;;;12.82;;
56297;SDS011;42208;6.376;-10.782;2022-10-31T17:53:49;50.38;;;11.05;;
56297;SDS011;42208;6.376;-10.782;2022-10-31T17:56:17;36.45;;;10.32;;
56297;SDS011;42208;6.376;-10.782;2022-10-31T17:58:46;38.42;;;16.88;;
56297;SDS011;42208;6.376;-10.782;2022-10-31T18:01:14;42.88;;;10.07;;
56297;SDS011;42208;6.376;-10.782;2022-10-31T18:03:44;31.80;;;8.27;;
56297;SDS011;42208;6.376;-10.782;2022-10-31T18:06:12;48.40;;;16.98;;